sensor_id;sensor_type;location;lat;lon;timestamp;P1;durP1;ratioP1;P2;durP2;ratioP2
16171;SDS011;8192;53.596;10.166;2023-08-06T00:02:11;21.15;;;19.73;;
16171;SDS011;8192;53.596;10.166;2023-08-06T00:04:38;21.00;;;19.70;;
16171;SDS011;8192;53.596;10.166;2023-08-06T00:07:05;22.08;;;20.58;;
16171;SDS011;8192;53.596;10.166;2023-08-06T00:09:32;22.40;;;20.90;;
16171;SDS011;8192;53.596;10.166;2023-08-06T00:12:01;22.33;;;20.92;;
16171;SDS011;8192;53.596;10.166;2023-08-06T00:14:29;22.80;;;21.30;;
16171;SDS011;8192;53.596;10.166;2023-08-06T00:16:56;23.40;;;21.80;;
16171;SDS011;8192;53.596;10.166;2023-08-06T00:19:23;23.30;;;21.58;;
16171;SDS011;8192;53.596;10.166;2023-08-06T00:21:50;24.33;;;22.52;;
16171;SDS011;8192;53.596;10.166;2023-08-06T00:24:16;25.10;;;22.50;;
16171;SDS011;8192;53.596;10.166;2023-08-06T00:26:43;23.75;;;21.95;;
16171;SDS011;8192;53.596;10.166;2023-08-06T00:29:12;23.73;;;22.02;;
16171;SDS011;8192;53.596;10.166;2023-08-06T00:31:39;24.73;;;22.42;;
16171;SDS011;8192;53.596;10.166;2023-08-06T00:34:07;24.30;;;22.17;;
16171;SDS011;8192;53.596;10.166;2023-08-06T00:36:34;24.85;;;22.73;;
16171;SDS011;8192;53.596;10.166;2023-08-06T00:39:00;24.20;;;22.25;;
16171;SDS011;8192;53.596;10.166;2023-08-06T00:41:27;24.92;;;23.02;;
16171;SDS011;8192;53.596;10.166;2023-08-06T00:43:55;24.40;;;22.50;;
16171;SDS011;8192;53.596;10.166;2023-08-06T00:46:23;24.80;;;22.80;;
16171;SDS011;8192;53.596;10.166;2023-08-06T00:48:51;24.05;;;22.25;;
16171;SDS011;8192;53.596;10.166;2023-08-06T00:51:18;24.80;;;22.70;;
16171;SDS011;8192;53.596;10.166;2023-08-06T00:53:45;25.27;;;23.10;;
16171;SDS011;8192;53.596;10.166;2023-08-06T00:56:13;24.98;;;22.98;;
16171;SDS011;8192;53.596;10.166;2023-08-06T00:58:40;25.05;;;22.95;;
16171;SDS011;8192;53.596;10.166;2023-08-06T01:01:08;25.38;;;23.27;;
16171;SDS011;8192;53.596;10.166;2023-08-06T01:03:37;25.30;;;23.30;;
16171;SDS011;8192;53.596;10.166;2023-08-06T01:06:04;25.38;;;23.27;;
16171;SDS011;8192;53.596;10.166;2023-08-06T01:08:35;25.13;;;23.00;;
16171;SDS011;8192;53.596;10.166;2023-08-06T01:11:17;25.42;;;23.35;;
16171;SDS011;8192;53.596;10.166;2023-08-06T01:13:54;25.67;;;23.67;;
16171;SDS011;8192;53.596;10.166;2023-08-06T01:16:28;26.98;;;24.63;;
16171;SDS011;8192;53.596;10.166;2023-08-06T01:18:58;26.50;;;24.20;;
16171;SDS011;8192;53.596;10.166;2023-08-06T01:21:27;26.50;;;24.08;;
16171;SDS011;8192;53.596;10.166;2023-08-06T01:23:54;26.70;;;24.42;;
16171;SDS011;8192;53.596;10.166;2023-08-06T01:26:22;26.42;;;24.33;;
16171;SDS011;8192;53.596;10.166;2023-08-06T01:28:59;26.15;;;24.05;;
16171;SDS011;8192;53.596;10.166;2023-08-06T01:31:33;26.40;;;24.23;;
16171;SDS011;8192;53.596;10.166;2023-08-06T01:34:04;25.63;;;23.58;;
16171;SDS011;8192;53.596;10.166;2023-08-06T01:36:37;26.45;;;24.38;;
16171;SDS011;8192;53.596;10.166;2023-08-06T01:39:05;25.88;;;23.75;;
16171;SDS011;8192;53.596;10.166;2023-08-06T01:41:31;26.85;;;24.48;;
16171;SDS011;8192;53.596;10.166;2023-08-06T01:43:58;26.08;;;23.98;;
16171;SDS011;8192;53.596;10.166;2023-08-06T01:46:25;26.90;;;24.70;;
16171;SDS011;8192;53.596;10.166;2023-08-06T01:48:52;26.85;;;24.42;;
16171;SDS011;8192;53.596;10.166;2023-08-06T01:51:19;26.02;;;23.92;;
16171;SDS011;8192;53.596;10.166;2023-08-06T01:53:48;27.42;;;24.98;;
16171;SDS011;8192;53.596;10.166;2023-08-06T01:56:15;26.42;;;24.00;;
16171;SDS011;8192;53.596;10.166;2023-08-06T01:58:42;26.50;;;24.10;;
16171;SDS011;8192;53.596;10.166;2023-08-06T02:01:09;26.23;;;23.95;;
16171;SDS011;8192;53.596;10.166;2023-08-06T02:03:36;26.25;;;23.98;;
16171;SDS011;8192;53.596;10.166;2023-08-06T02:06:03;27.10;;;24.75;;
16171;SDS011;8192;53.596;10.166;2023-08-06T02:08:30;26.85;;;24.50;;
16171;SDS011;8192;53.596;10.166;2023-08-06T02:10:58;26.08;;;23.75;;
16171;SDS011;8192;53.596;10.166;2023-08-06T02:13:25;26.63;;;24.42;;
16171;SDS011;8192;53.596;10.166;2023-08-06T02:15:52;26.75;;;24.50;;
16171;SDS011;8192;53.596;10.166;2023-08-06T02:18:19;27.00;;;24.80;;
16171;SDS011;8192;53.596;10.166;2023-08-06T02:20:54;26.73;;;24.50;;
16171;SDS011;8192;53.596;10.166;2023-08-06T02:23:22;26.52;;;24.23;;
16171;SDS011;8192;53.596;10.166;2023-08-06T02:25:57;26.55;;;24.33;;
16171;SDS011;8192;53.596;10.166;2023-08-06T02:28:25;26.73;;;24.38;;
16171;SDS011;8192;53.596;10.166;2023-08-06T02:30:52;27.25;;;24.85;;
16171;SDS011;8192;53.596;10.166;2023-08-06T02:33:18;27.55;;;24.75;;
16171;SDS011;8192;53.596;10.166;2023-08-06T02:35:45;28.17;;;25.67;;
16171;SDS011;8192;53.596;10.166;2023-08-06T02:38:12;27.83;;;25.25;;
16171;SDS011;8192;53.596;10.166;2023-08-06T02:40:42;27.23;;;24.80;;
16171;SDS011;8192;53.596;10.166;2023-08-06T02:43:12;27.55;;;24.65;;
16171;SDS011;8192;53.596;10.166;2023-08-06T02:45:39;28.05;;;25.65;;
16171;SDS011;8192;53.596;10.166;2023-08-06T02:48:07;26.83;;;24.42;;
16171;SDS011;8192;53.596;10.166;2023-08-06T02:50:38;27.80;;;25.15;;
16171;SDS011;8192;53.596;10.166;2023-08-06T02:53:05;26.38;;;24.08;;
16171;SDS011;8192;53.596;10.166;2023-08-06T02:55:33;27.98;;;25.27;;
16171;SDS011;8192;53.596;10.166;2023-08-06T02:58:00;27.33;;;24.80;;
16171;SDS011;8192;53.596;10.166;2023-08-06T03:00:29;26.75;;;24.33;;
16171;SDS011;8192;53.596;10.166;2023-08-06T03:02:56;27.48;;;24.98;;
16171;SDS011;8192;53.596;10.166;2023-08-06T03:05:23;27.45;;;24.65;;
16171;SDS011;8192;53.596;10.166;2023-08-06T03:07:50;27.55;;;25.02;;
16171;SDS011;8192;53.596;10.166;2023-08-06T03:10:17;27.25;;;24.52;;
16171;SDS011;8192;53.596;10.166;2023-08-06T03:12:45;26.92;;;24.58;;
16171;SDS011;8192;53.596;10.166;2023-08-06T03:15:12;27.30;;;24.80;;
16171;SDS011;8192;53.596;10.166;2023-08-06T03:17:40;27.70;;;25.20;;
16171;SDS011;8192;53.596;10.166;2023-08-06T03:20:09;26.80;;;24.50;;
16171;SDS011;8192;53.596;10.166;2023-08-06T03:22:36;26.27;;;23.98;;
16171;SDS011;8192;53.596;10.166;2023-08-06T03:25:04;26.83;;;24.52;;
16171;SDS011;8192;53.596;10.166;2023-08-06T03:27:32;26.13;;;23.92;;
16171;SDS011;8192;53.596;10.166;2023-08-06T03:29:59;27.05;;;24.42;;
16171;SDS011;8192;53.596;10.166;2023-08-06T03:32:26;27.38;;;24.67;;
16171;SDS011;8192;53.596;10.166;2023-08-06T03:34:54;27.42;;;25.00;;
16171;SDS011;8192;53.596;10.166;2023-08-06T03:37:21;27.75;;;25.17;;
16171;SDS011;8192;53.596;10.166;2023-08-06T03:39:48;26.67;;;24.38;;
16171;SDS011;8192;53.596;10.166;2023-08-06T03:42:15;27.88;;;25.00;;
16171;SDS011;8192;53.596;10.166;2023-08-06T03:44:42;27.65;;;25.15;;
16171;SDS011;8192;53.596;10.166;2023-08-06T03:47:09;28.63;;;26.08;;
16171;SDS011;8192;53.596;10.166;2023-08-06T03:49:36;27.95;;;25.42;;
16171;SDS011;8192;53.596;10.166;2023-08-06T03:52:05;26.90;;;24.50;;
16171;SDS011;8192;53.596;10.166;2023-08-06T03:54:32;28.15;;;25.60;;
16171;SDS011;8192;53.596;10.166;2023-08-06T03:56:59;27.38;;;24.98;;
16171;SDS011;8192;53.596;10.166;2023-08-06T03:59:26;28.55;;;25.92;;
16171;SDS011;8192;53.596;10.166;2023-08-06T04:01:54;27.73;;;24.92;;
16171;SDS011;8192;53.596;10.166;2023-08-06T04:04:21;28.00;;;25.35;;
16171;SDS011;8192;53.596;10.166;2023-08-06T04:06:48;27.85;;;25.27;;
16171;SDS011;8192;53.596;10.166;2023-08-06T04:09:16;28.48;;;25.63;;
16171;SDS011;8192;53.596;10.166;2023-08-06T04:11:44;27.80;;;25.45;;
16171;SDS011;8192;53.596;10.166;2023-08-06T04:14:11;27.60;;;25.00;;
16171;SDS011;8192;53.596;10.166;2023-08-06T04:16:38;27.77;;;25.00;;
16171;SDS011;8192;53.596;10.166;2023-08-06T04:19:04;27.63;;;25.20;;
16171;SDS011;8192;53.596;10.166;2023-08-06T04:21:31;28.35;;;25.35;;
16171;SDS011;8192;53.596;10.166;2023-08-06T04:23:59;28.20;;;25.48;;
16171;SDS011;8192;53.596;10.166;2023-08-06T04:26:28;27.77;;;24.98;;
16171;SDS011;8192;53.596;10.166;2023-08-06T04:28:55;28.17;;;25.58;;
16171;SDS011;8192;53.596;10.166;2023-08-06T04:31:22;27.70;;;25.27;;
16171;SDS011;8192;53.596;10.166;2023-08-06T04:33:49;27.63;;;25.25;;
16171;SDS011;8192;53.596;10.166;2023-08-06T04:36:16;27.73;;;25.15;;
16171;SDS011;8192;53.596;10.166;2023-08-06T04:38:43;27.77;;;24.95;;
16171;SDS011;8192;53.596;10.166;2023-08-06T04:41:12;27.92;;;25.15;;
16171;SDS011;8192;53.596;10.166;2023-08-06T04:43:40;27.77;;;25.27;;
16171;SDS011;8192;53.596;10.166;2023-08-06T04:46:07;28.52;;;26.15;;
16171;SDS011;8192;53.596;10.166;2023-08-06T04:48:34;27.98;;;25.48;;
16171;SDS011;8192;53.596;10.166;2023-08-06T04:51:01;28.67;;;26.10;;
16171;SDS011;8192;53.596;10.166;2023-08-06T04:53:28;27.80;;;25.27;;
16171;SDS011;8192;53.596;10.166;2023-08-06T04:55:55;29.70;;;26.48;;
16171;SDS011;8192;53.596;10.166;2023-08-06T04:58:22;29.48;;;26.42;;
16171;SDS011;8192;53.596;10.166;2023-08-06T05:00:50;29.42;;;26.50;;
16171;SDS011;8192;53.596;10.166;2023-08-06T05:03:19;29.05;;;26.13;;
16171;SDS011;8192;53.596;10.166;2023-08-06T05:05:47;30.10;;;27.33;;
16171;SDS011;8192;53.596;10.166;2023-08-06T05:08:15;29.45;;;26.75;;
16171;SDS011;8192;53.596;10.166;2023-08-06T05:10:42;28.65;;;26.02;;
16171;SDS011;8192;53.596;10.166;2023-08-06T05:13:10;28.40;;;25.70;;
16171;SDS011;8192;53.596;10.166;2023-08-06T05:15:37;29.27;;;26.35;;
16171;SDS011;8192;53.596;10.166;2023-08-06T05:18:06;29.45;;;26.73;;
16171;SDS011;8192;53.596;10.166;2023-08-06T05:20:35;28.65;;;25.88;;
16171;SDS011;8192;53.596;10.166;2023-08-06T05:23:02;29.63;;;26.92;;
16171;SDS011;8192;53.596;10.166;2023-08-06T05:25:29;28.30;;;25.70;;
16171;SDS011;8192;53.596;10.166;2023-08-06T05:27:56;29.10;;;26.40;;
16171;SDS011;8192;53.596;10.166;2023-08-06T05:30:23;28.75;;;25.95;;
16171;SDS011;8192;53.596;10.166;2023-08-06T05:32:50;30.20;;;27.17;;
16171;SDS011;8192;53.596;10.166;2023-08-06T05:35:19;29.30;;;26.55;;
16171;SDS011;8192;53.596;10.166;2023-08-06T05:37:46;29.17;;;26.40;;
16171;SDS011;8192;53.596;10.166;2023-08-06T05:40:13;30.63;;;27.67;;
16171;SDS011;8192;53.596;10.166;2023-08-06T05:42:40;30.70;;;27.50;;
16171;SDS011;8192;53.596;10.166;2023-08-06T05:45:08;30.90;;;27.90;;
16171;SDS011;8192;53.596;10.166;2023-08-06T05:47:36;30.13;;;27.13;;
16171;SDS011;8192;53.596;10.166;2023-08-06T05:50:03;28.45;;;26.02;;
16171;SDS011;8192;53.596;10.166;2023-08-06T05:52:32;29.27;;;26.40;;
16171;SDS011;8192;53.596;10.166;2023-08-06T05:54:59;29.05;;;26.27;;
16171;SDS011;8192;53.596;10.166;2023-08-06T05:57:28;29.42;;;26.48;;
16171;SDS011;8192;53.596;10.166;2023-08-06T05:59:55;28.95;;;26.10;;
16171;SDS011;8192;53.596;10.166;2023-08-06T06:02:22;28.02;;;25.25;;
16171;SDS011;8192;53.596;10.166;2023-08-06T06:04:49;28.83;;;26.08;;
16171;SDS011;8192;53.596;10.166;2023-08-06T06:07:16;29.02;;;26.13;;
16171;SDS011;8192;53.596;10.166;2023-08-06T06:09:45;29.42;;;26.63;;
16171;SDS011;8192;53.596;10.166;2023-08-06T06:12:11;28.60;;;26.02;;
16171;SDS011;8192;53.596;10.166;2023-08-06T06:14:38;28.58;;;25.80;;
16171;SDS011;8192;53.596;10.166;2023-08-06T06:17:05;28.83;;;25.98;;
16171;SDS011;8192;53.596;10.166;2023-08-06T06:19:32;28.52;;;25.92;;
16171;SDS011;8192;53.596;10.166;2023-08-06T06:21:59;29.20;;;26.50;;
16171;SDS011;8192;53.596;10.166;2023-08-06T06:24:26;29.52;;;26.73;;
16171;SDS011;8192;53.596;10.166;2023-08-06T06:26:55;27.42;;;24.92;;
16171;SDS011;8192;53.596;10.166;2023-08-06T06:29:22;28.48;;;25.83;;
16171;SDS011;8192;53.596;10.166;2023-08-06T06:31:48;29.10;;;26.40;;
16171;SDS011;8192;53.596;10.166;2023-08-06T06:34:15;27.63;;;25.13;;
16171;SDS011;8192;53.596;10.166;2023-08-06T06:36:42;28.15;;;25.55;;
16171;SDS011;8192;53.596;10.166;2023-08-06T06:39:09;29.48;;;26.58;;
16171;SDS011;8192;53.596;10.166;2023-08-06T06:41:36;27.50;;;25.02;;
16171;SDS011;8192;53.596;10.166;2023-08-06T06:44:05;27.13;;;24.83;;
16171;SDS011;8192;53.596;10.166;2023-08-06T06:46:32;27.90;;;25.40;;
16171;SDS011;8192;53.596;10.166;2023-08-06T06:48:59;28.73;;;26.02;;
16171;SDS011;8192;53.596;10.166;2023-08-06T06:51:26;27.90;;;25.40;;
16171;SDS011;8192;53.596;10.166;2023-08-06T06:53:53;27.85;;;25.13;;
16171;SDS011;8192;53.596;10.166;2023-08-06T06:56:20;28.35;;;25.58;;
16171;SDS011;8192;53.596;10.166;2023-08-06T06:58:47;28.33;;;25.45;;
16171;SDS011;8192;53.596;10.166;2023-08-06T07:01:16;28.02;;;25.33;;
16171;SDS011;8192;53.596;10.166;2023-08-06T07:03:43;27.98;;;25.38;;
16171;SDS011;8192;53.596;10.166;2023-08-06T07:06:10;27.08;;;24.50;;
16171;SDS011;8192;53.596;10.166;2023-08-06T07:08:37;27.67;;;25.08;;
16171;SDS011;8192;53.596;10.166;2023-08-06T07:11:05;26.17;;;23.88;;
16171;SDS011;8192;53.596;10.166;2023-08-06T07:13:33;26.85;;;24.10;;
16171;SDS011;8192;53.596;10.166;2023-08-06T07:16:00;27.33;;;24.75;;
16171;SDS011;8192;53.596;10.166;2023-08-06T07:18:30;27.67;;;25.05;;
16171;SDS011;8192;53.596;10.166;2023-08-06T07:20:57;26.85;;;24.45;;
16171;SDS011;8192;53.596;10.166;2023-08-06T07:23:25;26.52;;;23.90;;
16171;SDS011;8192;53.596;10.166;2023-08-06T07:25:53;27.40;;;25.10;;
16171;SDS011;8192;53.596;10.166;2023-08-06T07:28:20;28.00;;;25.13;;
16171;SDS011;8192;53.596;10.166;2023-08-06T07:30:48;27.10;;;24.42;;
16171;SDS011;8192;53.596;10.166;2023-08-06T07:33:15;27.23;;;24.65;;
16171;SDS011;8192;53.596;10.166;2023-08-06T07:35:46;27.40;;;25.10;;
16171;SDS011;8192;53.596;10.166;2023-08-06T07:38:13;27.48;;;25.17;;
16171;SDS011;8192;53.596;10.166;2023-08-06T07:40:40;26.98;;;24.10;;
16171;SDS011;8192;53.596;10.166;2023-08-06T07:43:07;28.30;;;24.20;;
16171;SDS011;8192;53.596;10.166;2023-08-06T07:45:34;26.77;;;24.50;;
16171;SDS011;8192;53.596;10.166;2023-08-06T07:48:02;26.52;;;24.05;;
16171;SDS011;8192;53.596;10.166;2023-08-06T07:50:30;27.63;;;25.10;;
16171;SDS011;8192;53.596;10.166;2023-08-06T07:52:58;28.08;;;25.25;;
16171;SDS011;8192;53.596;10.166;2023-08-06T07:55:25;27.55;;;24.88;;
16171;SDS011;8192;53.596;10.166;2023-08-06T07:57:53;26.98;;;24.70;;
16171;SDS011;8192;53.596;10.166;2023-08-06T08:00:20;27.30;;;24.48;;
16171;SDS011;8192;53.596;10.166;2023-08-06T08:02:47;26.90;;;24.80;;
16171;SDS011;8192;53.596;10.166;2023-08-06T08:05:14;27.08;;;24.58;;
16171;SDS011;8192;53.596;10.166;2023-08-06T08:07:42;26.55;;;23.95;;
16171;SDS011;8192;53.596;10.166;2023-08-06T08:10:11;26.55;;;24.42;;
16171;SDS011;8192;53.596;10.166;2023-08-06T08:12:38;27.10;;;24.80;;
16171;SDS011;8192;53.596;10.166;2023-08-06T08:15:05;26.80;;;24.60;;
16171;SDS011;8192;53.596;10.166;2023-08-06T08:17:32;26.77;;;24.27;;
16171;SDS011;8192;53.596;10.166;2023-08-06T08:20:01;27.17;;;24.27;;
16171;SDS011;8192;53.596;10.166;2023-08-06T08:22:28;28.40;;;25.48;;
16171;SDS011;8192;53.596;10.166;2023-08-06T08:24:57;26.40;;;24.15;;
16171;SDS011;8192;53.596;10.166;2023-08-06T08:27:27;26.38;;;23.95;;
16171;SDS011;8192;53.596;10.166;2023-08-06T08:29:55;26.92;;;24.60;;
16171;SDS011;8192;53.596;10.166;2023-08-06T08:32:23;26.98;;;24.55;;
16171;SDS011;8192;53.596;10.166;2023-08-06T08:34:50;26.75;;;24.48;;
16171;SDS011;8192;53.596;10.166;2023-08-06T08:37:19;27.30;;;24.65;;
16171;SDS011;8192;53.596;10.166;2023-08-06T08:39:47;28.27;;;25.55;;
16171;SDS011;8192;53.596;10.166;2023-08-06T08:42:14;28.35;;;25.70;;
16171;SDS011;8192;53.596;10.166;2023-08-06T08:44:43;27.55;;;25.17;;
16171;SDS011;8192;53.596;10.166;2023-08-06T08:47:10;27.55;;;24.80;;
16171;SDS011;8192;53.596;10.166;2023-08-06T08:49:41;28.85;;;25.90;;
16171;SDS011;8192;53.596;10.166;2023-08-06T08:52:09;27.45;;;24.80;;
16171;SDS011;8192;53.596;10.166;2023-08-06T08:54:38;27.38;;;24.77;;
16171;SDS011;8192;53.596;10.166;2023-08-06T08:57:06;28.02;;;25.42;;
16171;SDS011;8192;53.596;10.166;2023-08-06T08:59:33;28.20;;;25.75;;
16171;SDS011;8192;53.596;10.166;2023-08-06T09:02:01;28.42;;;25.92;;
16171;SDS011;8192;53.596;10.166;2023-08-06T09:04:29;28.80;;;25.77;;
16171;SDS011;8192;53.596;10.166;2023-08-06T09:06:57;27.85;;;25.33;;
16171;SDS011;8192;53.596;10.166;2023-08-06T09:09:26;27.67;;;25.00;;
16171;SDS011;8192;53.596;10.166;2023-08-06T09:11:59;28.33;;;25.63;;
16171;SDS011;8192;53.596;10.166;2023-08-06T09:14:27;26.92;;;24.50;;
16171;SDS011;8192;53.596;10.166;2023-08-06T09:16:55;28.05;;;25.35;;
16171;SDS011;8192;53.596;10.166;2023-08-06T09:19:24;28.95;;;26.08;;
16171;SDS011;8192;53.596;10.166;2023-08-06T09:21:53;28.77;;;26.27;;
16171;SDS011;8192;53.596;10.166;2023-08-06T09:24:22;30.48;;;27.33;;
16171;SDS011;8192;53.596;10.166;2023-08-06T09:26:50;29.58;;;26.85;;
16171;SDS011;8192;53.596;10.166;2023-08-06T09:29:19;30.35;;;27.42;;
16171;SDS011;8192;53.596;10.166;2023-08-06T09:31:46;30.80;;;27.88;;
16171;SDS011;8192;53.596;10.166;2023-08-06T09:34:14;30.60;;;27.98;;
16171;SDS011;8192;53.596;10.166;2023-08-06T09:36:45;31.40;;;28.50;;
16171;SDS011;8192;53.596;10.166;2023-08-06T09:39:14;32.72;;;28.50;;
16171;SDS011;8192;53.596;10.166;2023-08-06T09:41:43;30.88;;;28.10;;
16171;SDS011;8192;53.596;10.166;2023-08-06T09:44:14;31.92;;;28.65;;
16171;SDS011;8192;53.596;10.166;2023-08-06T09:46:47;31.27;;;28.23;;
16171;SDS011;8192;53.596;10.166;2023-08-06T09:49:14;32.53;;;29.08;;
16171;SDS011;8192;53.596;10.166;2023-08-06T09:51:41;30.88;;;27.98;;
16171;SDS011;8192;53.596;10.166;2023-08-06T09:54:11;31.80;;;28.90;;
16171;SDS011;8192;53.596;10.166;2023-08-06T09:56:38;31.30;;;28.33;;
16171;SDS011;8192;53.596;10.166;2023-08-06T09:59:06;31.85;;;28.80;;
16171;SDS011;8192;53.596;10.166;2023-08-06T10:01:34;31.85;;;28.98;;
16171;SDS011;8192;53.596;10.166;2023-08-06T10:04:02;32.17;;;29.15;;
16171;SDS011;8192;53.596;10.166;2023-08-06T10:06:31;31.80;;;29.08;;
16171;SDS011;8192;53.596;10.166;2023-08-06T10:09:02;30.95;;;27.92;;
16171;SDS011;8192;53.596;10.166;2023-08-06T10:11:30;32.22;;;29.45;;
16171;SDS011;8192;53.596;10.166;2023-08-06T10:13:58;34.30;;;31.02;;
16171;SDS011;8192;53.596;10.166;2023-08-06T10:16:32;32.47;;;29.55;;
16171;SDS011;8192;53.596;10.166;2023-08-06T10:19:00;32.78;;;29.73;;
16171;SDS011;8192;53.596;10.166;2023-08-06T10:21:30;33.63;;;30.02;;
16171;SDS011;8192;53.596;10.166;2023-08-06T10:23:58;32.72;;;29.60;;
16171;SDS011;8192;53.596;10.166;2023-08-06T10:26:28;32.38;;;29.27;;
16171;SDS011;8192;53.596;10.166;2023-08-06T10:28:55;31.60;;;28.70;;
16171;SDS011;8192;53.596;10.166;2023-08-06T10:34:19;30.58;;;27.85;;
16171;SDS011;8192;53.596;10.166;2023-08-06T10:36:46;30.60;;;27.67;;
16171;SDS011;8192;53.596;10.166;2023-08-06T10:39:13;31.67;;;28.77;;
16171;SDS011;8192;53.596;10.166;2023-08-06T10:41:43;31.58;;;28.60;;
16171;SDS011;8192;53.596;10.166;2023-08-06T10:44:10;31.75;;;28.63;;
16171;SDS011;8192;53.596;10.166;2023-08-06T10:46:38;30.58;;;27.52;;
16171;SDS011;8192;53.596;10.166;2023-08-06T10:49:05;30.75;;;27.77;;
16171;SDS011;8192;53.596;10.166;2023-08-06T10:51:32;30.30;;;27.50;;
16171;SDS011;8192;53.596;10.166;2023-08-06T10:54:00;30.40;;;27.52;;
16171;SDS011;8192;53.596;10.166;2023-08-06T10:56:26;30.50;;;27.17;;
16171;SDS011;8192;53.596;10.166;2023-08-06T10:58:55;30.13;;;27.42;;
16171;SDS011;8192;53.596;10.166;2023-08-06T11:01:23;32.05;;;27.67;;
16171;SDS011;8192;53.596;10.166;2023-08-06T11:03:50;29.77;;;26.77;;
16171;SDS011;8192;53.596;10.166;2023-08-06T11:06:18;30.45;;;27.67;;
16171;SDS011;8192;53.596;10.166;2023-08-06T11:08:49;29.20;;;26.70;;
16171;SDS011;8192;53.596;10.166;2023-08-06T11:11:18;29.27;;;26.60;;
16171;SDS011;8192;53.596;10.166;2023-08-06T11:13:46;29.23;;;26.33;;
16171;SDS011;8192;53.596;10.166;2023-08-06T11:16:15;29.17;;;26.48;;
16171;SDS011;8192;53.596;10.166;2023-08-06T11:18:44;29.13;;;26.10;;
16171;SDS011;8192;53.596;10.166;2023-08-06T11:21:12;29.92;;;27.00;;
16171;SDS011;8192;53.596;10.166;2023-08-06T11:23:39;29.48;;;26.77;;
16171;SDS011;8192;53.596;10.166;2023-08-06T11:26:07;28.85;;;26.08;;
16171;SDS011;8192;53.596;10.166;2023-08-06T11:28:34;28.92;;;26.27;;
16171;SDS011;8192;53.596;10.166;2023-08-06T11:31:02;30.00;;;26.85;;
16171;SDS011;8192;53.596;10.166;2023-08-06T11:33:31;29.15;;;26.30;;
16171;SDS011;8192;53.596;10.166;2023-08-06T11:35:58;29.65;;;26.80;;
16171;SDS011;8192;53.596;10.166;2023-08-06T11:38:26;28.10;;;25.60;;
16171;SDS011;8192;53.596;10.166;2023-08-06T11:40:54;30.15;;;27.35;;
16171;SDS011;8192;53.596;10.166;2023-08-06T11:43:21;29.83;;;26.85;;
16171;SDS011;8192;53.596;10.166;2023-08-06T11:45:48;30.35;;;27.45;;
16171;SDS011;8192;53.596;10.166;2023-08-06T11:48:18;30.80;;;27.90;;
16171;SDS011;8192;53.596;10.166;2023-08-06T11:50:47;29.15;;;26.55;;
16171;SDS011;8192;53.596;10.166;2023-08-06T11:53:14;29.45;;;26.75;;
16171;SDS011;8192;53.596;10.166;2023-08-06T11:55:41;28.95;;;26.35;;
16171;SDS011;8192;53.596;10.166;2023-08-06T11:58:09;28.10;;;25.08;;
16171;SDS011;8192;53.596;10.166;2023-08-06T12:00:37;27.45;;;24.75;;
16171;SDS011;8192;53.596;10.166;2023-08-06T12:03:05;27.50;;;24.88;;
16171;SDS011;8192;53.596;10.166;2023-08-06T12:05:32;28.17;;;25.40;;
16171;SDS011;8192;53.596;10.166;2023-08-06T12:08:01;29.13;;;26.20;;
16171;SDS011;8192;53.596;10.166;2023-08-06T12:10:29;29.40;;;26.63;;
16171;SDS011;8192;53.596;10.166;2023-08-06T12:12:57;28.27;;;25.35;;
16171;SDS011;8192;53.596;10.166;2023-08-06T12:15:27;27.52;;;25.02;;
16171;SDS011;8192;53.596;10.166;2023-08-06T12:17:54;26.25;;;23.80;;
16171;SDS011;8192;53.596;10.166;2023-08-06T12:20:21;26.73;;;24.33;;
16171;SDS011;8192;53.596;10.166;2023-08-06T12:22:48;27.85;;;25.45;;
16171;SDS011;8192;53.596;10.166;2023-08-06T12:25:18;27.90;;;25.15;;
16171;SDS011;8192;53.596;10.166;2023-08-06T12:27:46;26.58;;;24.15;;
16171;SDS011;8192;53.596;10.166;2023-08-06T12:30:13;26.67;;;24.08;;
16171;SDS011;8192;53.596;10.166;2023-08-06T12:32:40;27.77;;;24.95;;
16171;SDS011;8192;53.596;10.166;2023-08-06T12:35:07;26.85;;;24.35;;
16171;SDS011;8192;53.596;10.166;2023-08-06T12:37:35;25.60;;;23.30;;
16171;SDS011;8192;53.596;10.166;2023-08-06T12:40:03;27.48;;;25.00;;
16171;SDS011;8192;53.596;10.166;2023-08-06T12:42:32;25.50;;;23.00;;
16171;SDS011;8192;53.596;10.166;2023-08-06T12:44:59;25.02;;;22.88;;
16171;SDS011;8192;53.596;10.166;2023-08-06T12:47:27;25.95;;;23.55;;
16171;SDS011;8192;53.596;10.166;2023-08-06T12:49:55;25.52;;;23.30;;
16171;SDS011;8192;53.596;10.166;2023-08-06T12:52:23;25.80;;;23.60;;
16171;SDS011;8192;53.596;10.166;2023-08-06T12:54:50;25.90;;;23.65;;
16171;SDS011;8192;53.596;10.166;2023-08-06T12:57:17;25.77;;;23.48;;
16171;SDS011;8192;53.596;10.166;2023-08-06T12:59:45;25.13;;;22.83;;
16171;SDS011;8192;53.596;10.166;2023-08-06T13:02:13;25.75;;;23.65;;
16171;SDS011;8192;53.596;10.166;2023-08-06T13:04:40;25.77;;;23.42;;
16171;SDS011;8192;53.596;10.166;2023-08-06T13:07:08;26.27;;;23.90;;
16171;SDS011;8192;53.596;10.166;2023-08-06T13:09:35;25.67;;;23.30;;
16171;SDS011;8192;53.596;10.166;2023-08-06T13:12:02;25.83;;;23.55;;
16171;SDS011;8192;53.596;10.166;2023-08-06T13:14:31;25.95;;;23.65;;
16171;SDS011;8192;53.596;10.166;2023-08-06T13:17:00;25.42;;;22.90;;
16171;SDS011;8192;53.596;10.166;2023-08-06T13:19:28;26.23;;;23.95;;
16171;SDS011;8192;53.596;10.166;2023-08-06T13:21:59;26.23;;;23.77;;
16171;SDS011;8192;53.596;10.166;2023-08-06T13:24:29;25.50;;;23.38;;
16171;SDS011;8192;53.596;10.166;2023-08-06T13:26:58;26.48;;;24.05;;
16171;SDS011;8192;53.596;10.166;2023-08-06T13:29:25;26.23;;;23.73;;
16171;SDS011;8192;53.596;10.166;2023-08-06T13:31:53;26.00;;;23.70;;
16171;SDS011;8192;53.596;10.166;2023-08-06T13:34:21;25.70;;;23.40;;
16171;SDS011;8192;53.596;10.166;2023-08-06T13:36:48;26.15;;;23.67;;
16171;SDS011;8192;53.596;10.166;2023-08-06T13:39:16;24.60;;;22.17;;
16171;SDS011;8192;53.596;10.166;2023-08-06T13:41:44;24.50;;;22.35;;
16171;SDS011;8192;53.596;10.166;2023-08-06T13:44:11;24.50;;;22.15;;
16171;SDS011;8192;53.596;10.166;2023-08-06T13:46:39;25.00;;;22.80;;
16171;SDS011;8192;53.596;10.166;2023-08-06T13:49:07;24.13;;;22.02;;
16171;SDS011;8192;53.596;10.166;2023-08-06T13:51:36;23.98;;;21.77;;
16171;SDS011;8192;53.596;10.166;2023-08-06T13:54:03;23.42;;;21.38;;
16171;SDS011;8192;53.596;10.166;2023-08-06T13:56:31;23.70;;;21.38;;
16171;SDS011;8192;53.596;10.166;2023-08-06T13:58:59;23.90;;;21.58;;
16171;SDS011;8192;53.596;10.166;2023-08-06T14:01:26;23.50;;;21.50;;
16171;SDS011;8192;53.596;10.166;2023-08-06T14:03:53;23.65;;;21.35;;
16171;SDS011;8192;53.596;10.166;2023-08-06T14:06:22;22.85;;;20.80;;
16171;SDS011;8192;53.596;10.166;2023-08-06T14:08:50;23.75;;;21.65;;
16171;SDS011;8192;53.596;10.166;2023-08-06T14:11:17;23.30;;;21.10;;
16171;SDS011;8192;53.596;10.166;2023-08-06T14:13:44;22.58;;;20.58;;
16171;SDS011;8192;53.596;10.166;2023-08-06T14:16:11;23.08;;;20.98;;
16171;SDS011;8192;53.596;10.166;2023-08-06T14:18:38;23.25;;;21.05;;
16171;SDS011;8192;53.596;10.166;2023-08-06T14:21:06;22.88;;;20.70;;
16171;SDS011;8192;53.596;10.166;2023-08-06T14:23:33;22.92;;;20.92;;
16171;SDS011;8192;53.596;10.166;2023-08-06T14:26:02;22.63;;;20.52;;
16171;SDS011;8192;53.596;10.166;2023-08-06T14:28:29;22.75;;;20.33;;